« Back
NWS Peachtree City, Ga » Text Product » ATL Terminal Aerodrome Forecast


Printer-friendly Version
Current Version              Previous Versions:   1  2  3  4  5  6  7  8  9  

Terminal Aerodrome Forecast

897
FTUS42 KFFC 041731
TAFATL
TAF
KATL 041731Z 0418/0524 23008KT P6SM VCSH SCT040 BKN100
     FM050100 24006KT 5SM SHRA SCT025 BKN040
      TEMPO 0501/0505 VRB15G25KT 3SM TSRA BKN025CB
     FM050600 25003KT 5SM BR BKN015
     FM051400 25005KT P6SM FEW025 BKN045
     FM051900 22009G14KT P6SM BKN050 PROB30 0519/0524 -TSRA
      BKN025CB=

USA.gov is the U.S. government's official web portal to all federal, state and local government web resources and services.